createdAt,value
2023-10-08T00:01:07.743Z,99466.13
2023-10-08T00:03:35.618Z,99475.03
2023-10-08T00:06:08.339Z,99469.97
2023-10-08T00:08:35.700Z,99485.19
2023-10-08T00:11:11.761Z,99459.31
2023-10-08T00:13:42.587Z,99441.69
2023-10-08T00:16:17.172Z,99439.03
2023-10-08T00:18:50.473Z,99453.72
2023-10-08T00:21:18.753Z,99476.66
2023-10-08T00:23:56.100Z,99462.03
2023-10-08T00:26:32.688Z,99446.75
2023-10-08T00:29:01.420Z,99442.06
2023-10-08T00:31:32.937Z,99446.09
2023-10-08T00:34:00.293Z,99455.41
2023-10-08T00:36:27.470Z,99447.94
2023-10-08T00:38:55.432Z,99462.75
2023-10-08T00:41:29.501Z,99462.41
2023-10-08T00:44:01.617Z,99457.38
2023-10-08T00:46:33.052Z,99472.81
2023-10-08T00:49:20.419Z,99467.16
2023-10-08T00:51:47.782Z,99471.34
2023-10-08T00:54:18.925Z,99468.06
2023-10-08T00:57:00.091Z,99474.50
2023-10-08T00:59:27.150Z,99471.00
2023-10-08T01:02:00.348Z,99478.63
2023-10-08T01:04:27.958Z,99474.69
2023-10-08T01:07:14.192Z,99491.94
2023-10-08T01:09:44.218Z,99491.78
2023-10-08T01:12:36.394Z,99491.31
2023-10-08T01:15:15.020Z,99489.84
2023-10-08T01:17:47.273Z,99482.75
2023-10-08T01:20:35.400Z,99485.56
2023-10-08T01:23:11.310Z,99493.69
2023-10-08T01:25:39.636Z,99491.72
2023-10-08T01:28:15.906Z,99485.09
2023-10-08T01:30:48.226Z,99505.00
2023-10-08T01:33:18.033Z,99497.69
2023-10-08T01:35:45.119Z,99496.84
2023-10-08T01:38:15.192Z,99491.22
2023-10-08T01:40:43.258Z,99488.25
2023-10-08T01:43:11.830Z,99488.09
2023-10-08T01:45:42.321Z,99481.81
2023-10-08T01:48:12.549Z,99479.50
2023-10-08T01:50:39.844Z,99501.75
2023-10-08T01:53:11.862Z,99500.81
2023-10-08T01:55:50.860Z,99495.44
2023-10-08T01:58:18.772Z,99499.63
2023-10-08T02:00:48.833Z,99501.50
2023-10-08T02:03:24.677Z,99505.81
2023-10-08T02:05:55.108Z,99515.78
2023-10-08T02:08:22.495Z,99516.94
2023-10-08T02:10:49.621Z,99519.25
2023-10-08T02:13:17.681Z,99530.72
2023-10-08T02:15:46.697Z,99534.38
2023-10-08T02:18:14.271Z,99530.72
2023-10-08T02:20:41.571Z,99516.28
2023-10-08T02:23:08.689Z,99521.91
2023-10-08T02:25:39.094Z,99517.25
2023-10-08T02:28:06.531Z,99525.41
2023-10-08T02:30:33.636Z,99523.25
2023-10-08T02:33:00.732Z,99530.72
2023-10-08T02:35:28.839Z,99530.72
2023-10-08T02:37:56.429Z,99537.69
2023-10-08T02:40:29.021Z,99535.72
2023-10-08T02:43:02.388Z,99539.19
2023-10-08T02:45:29.605Z,99518.44
2023-10-08T02:47:56.865Z,99498.25
2023-10-08T02:50:24.451Z,99503.50
2023-10-08T02:52:51.524Z,99514.13
2023-10-08T02:55:29.851Z,99531.88
2023-10-08T02:57:57.627Z,99555.25
2023-10-08T03:00:31.275Z,99543.19
2023-10-08T03:03:00.274Z,99543.00
2023-10-08T03:05:31.894Z,99543.84
2023-10-08T03:07:59.341Z,99545.81
2023-10-08T03:10:33.674Z,99546.97
2023-10-08T03:13:06.781Z,99543.47
2023-10-08T03:15:48.186Z,99565.22
2023-10-08T03:18:22.033Z,99560.25
2023-10-08T03:20:51.028Z,99554.63
2023-10-08T03:23:25.205Z,99561.22
2023-10-08T03:26:01.828Z,99558.41
2023-10-08T03:28:30.392Z,99553.28
2023-10-08T03:31:07.106Z,99542.81
2023-10-08T03:33:36.366Z,99541.16
2023-10-08T03:36:22.450Z,99550.97
2023-10-08T03:38:53.297Z,99553.94
2023-10-08T03:41:34.200Z,99545.97
2023-10-08T03:44:07.207Z,99539.69
2023-10-08T03:46:40.998Z,99538.16
2023-10-08T03:49:15.769Z,99536.69
2023-10-08T03:51:46.093Z,99537.00
2023-10-08T03:54:20.242Z,99515.13
2023-10-08T03:56:47.509Z,99510.28
2023-10-08T03:59:15.615Z,99512.78
2023-10-08T04:01:45.736Z,99515.59
2023-10-08T04:04:15.726Z,99524.41
2023-10-08T04:06:55.697Z,99530.03
2023-10-08T04:09:25.561Z,99520.91
2023-10-08T04:11:55.839Z,99512.13
2023-10-08T04:14:26.060Z,99510.66
2023-10-08T04:16:53.580Z,99501.84
2023-10-08T04:19:22.427Z,99502.66
2023-10-08T04:21:55.382Z,99475.97
2023-10-08T04:24:36.628Z,99472.97
2023-10-08T04:27:10.789Z,99491.28
2023-10-08T04:29:41.495Z,99491.28
2023-10-08T04:32:14.024Z,99499.25
2023-10-08T04:34:46.578Z,99517.94
2023-10-08T04:37:14.214Z,99512.31
2023-10-08T04:39:48.536Z,99517.78
2023-10-08T04:42:19.736Z,99526.06
2023-10-08T04:44:47.534Z,99530.09
2023-10-08T04:47:33.319Z,99540.34
2023-10-08T04:50:00.510Z,99547.66
2023-10-08T04:52:29.287Z,99567.88
2023-10-08T04:54:56.168Z,99560.25
2023-10-08T04:57:27.346Z,99559.59
2023-10-08T04:59:59.366Z,99566.88
2023-10-08T05:02:29.244Z,99564.84
2023-10-08T05:05:31.513Z,99572.19
2023-10-08T05:08:19.014Z,99560.91
2023-10-08T05:11:02.271Z,99560.72
2023-10-08T05:13:36.446Z,99576.84
2023-10-08T05:16:23.402Z,99580.47
2023-10-08T05:19:09.843Z,99586.63
2023-10-08T05:21:52.667Z,99602.72
2023-10-08T05:24:29.110Z,99595.09
2023-10-08T05:27:17.057Z,99589.97
2023-10-08T05:30:02.709Z,99577.69
2023-10-08T05:32:40.324Z,99576.69
2023-10-08T05:35:31.101Z,99556.31
2023-10-08T05:38:14.592Z,99540.69
2023-10-08T05:41:22.366Z,99557.47
2023-10-08T05:43:57.029Z,99545.00
2023-10-08T05:46:44.181Z,99549.16
2023-10-08T05:49:11.355Z,99546.16
2023-10-08T05:52:09.983Z,99560.56
2023-10-08T05:54:37.990Z,99565.28
2023-10-08T05:57:27.620Z,99604.75
2023-10-08T06:00:17.753Z,99615.38
2023-10-08T06:02:47.289Z,99612.03
2023-10-08T06:05:34.566Z,99616.19
2023-10-08T06:08:13.624Z,99626.13
2023-10-08T06:10:40.506Z,99636.56
2023-10-08T06:13:44.913Z,99661.38
2023-10-08T06:16:14.841Z,99670.97
2023-10-08T06:18:42.088Z,99673.75
2023-10-08T06:21:13.454Z,99671.72
2023-10-08T06:23:43.617Z,99690.53
2023-10-08T06:26:16.504Z,99690.66
2023-10-08T06:28:45.478Z,99703.59
2023-10-08T06:31:13.595Z,99722.38
2023-10-08T06:33:43.170Z,99738.13
2023-10-08T06:36:13.696Z,99741.25
2023-10-08T06:38:42.314Z,99740.56
2023-10-08T06:41:22.801Z,99751.63
2023-10-08T06:44:04.629Z,99756.94
2023-10-08T06:46:36.192Z,99770.81
2023-10-08T06:49:13.781Z,99765.78
2023-10-08T06:51:44.853Z,99762.22
2023-10-08T06:54:15.761Z,99778.44
2023-10-08T06:56:48.185Z,99773.88
2023-10-08T06:59:15.875Z,99772.66
2023-10-08T07:01:52.858Z,99762.00
2023-10-08T07:04:23.935Z,99742.84
2023-10-08T07:06:52.267Z,99748.69
2023-10-08T07:09:45.575Z,99751.97
2023-10-08T07:12:15.726Z,99747.00
2023-10-08T07:14:43.415Z,99773.72
2023-10-08T07:17:13.406Z,99777.13
2023-10-08T07:19:42.141Z,99781.28
2023-10-08T07:22:30.410Z,99784.50
2023-10-08T07:24:58.663Z,99794.25
2023-10-08T07:27:33.776Z,99791.63
2023-10-08T07:30:03.909Z,99803.03
2023-10-08T07:32:32.356Z,99808.72
2023-10-08T07:35:15.980Z,99824.53
2023-10-08T07:37:44.364Z,99831.47
2023-10-08T07:40:13.503Z,99842.16
2023-10-08T07:42:40.742Z,99838.81
2023-10-08T07:45:08.162Z,99852.13
2023-10-08T07:47:35.416Z,99856.31
2023-10-08T07:50:13.237Z,99862.13
2023-10-08T07:52:45.726Z,99886.69
2023-10-08T07:55:19.632Z,99896.84
2023-10-08T07:57:46.963Z,99894.06
2023-10-08T08:00:24.872Z,99900.16
2023-10-08T08:02:53.949Z,99896.41
2023-10-08T08:05:22.773Z,99909.59
2023-10-08T08:07:53.669Z,99896.22
2023-10-08T08:10:20.826Z,99910.41
2023-10-08T08:12:47.700Z,99925.72
2023-10-08T08:15:17.412Z,99944.59
2023-10-08T08:17:45.513Z,99939.69
2023-10-08T08:20:36.499Z,99947.59
2023-10-08T08:23:08.159Z,99960.34
2023-10-08T08:26:08.902Z,99953.28
2023-10-08T08:28:35.923Z,99950.53
2023-10-08T08:31:10.037Z,99941.44
2023-10-08T08:33:54.292Z,99929.88
2023-10-08T08:36:25.521Z,99943.69
2023-10-08T08:38:52.699Z,99936.03
2023-10-08T08:41:21.813Z,99943.97
2023-10-08T08:43:50.173Z,99943.69
2023-10-08T08:46:17.266Z,99938.59
2023-10-08T08:48:46.522Z,99940.09
2023-10-08T08:51:14.595Z,99941.22
2023-10-08T08:53:42.689Z,99944.44
2023-10-08T08:56:10.909Z,99950.22
2023-10-08T08:58:39.286Z,99972.81
2023-10-08T09:01:14.654Z,99971.63
2023-10-08T09:03:41.873Z,99979.22
2023-10-08T09:06:09.076Z,99965.44
2023-10-08T09:08:37.879Z,99967.06
2023-10-08T09:11:09.545Z,99962.56
2023-10-08T09:13:37.235Z,99963.53
2023-10-08T09:16:08.840Z,99976.88
2023-10-08T09:18:36.548Z,99970.91
2023-10-08T09:21:14.561Z,99983.97
2023-10-08T09:23:45.896Z,99974.53
2023-10-08T09:26:15.378Z,99977.00
2023-10-08T09:28:48.068Z,99982.16
2023-10-08T09:31:15.754Z,99971.97
2023-10-08T09:33:43.300Z,99980.75
2023-10-08T09:36:17.278Z,99991.88
2023-10-08T09:38:46.176Z,99970.44
2023-10-08T09:41:13.627Z,99983.34
2023-10-08T09:43:43.124Z,99968.72
2023-10-08T09:46:15.607Z,99973.81
2023-10-08T09:48:45.637Z,99982.31
2023-10-08T09:51:14.176Z,99986.13
2023-10-08T09:54:17.376Z,99995.84
2023-10-08T09:56:45.846Z,100005.28
2023-10-08T09:59:13.734Z,100032.78
2023-10-08T10:01:42.009Z,100049.94
2023-10-08T10:04:12.918Z,100063.22
2023-10-08T10:06:44.729Z,100061.69
2023-10-08T10:09:23.498Z,100077.66
2023-10-08T10:11:51.784Z,100076.88
2023-10-08T10:14:21.991Z,100071.38
2023-10-08T10:17:10.566Z,100090.56
2023-10-08T10:19:38.008Z,100076.28
2023-10-08T10:22:06.915Z,100061.47
2023-10-08T10:24:36.238Z,100078.81
2023-10-08T10:27:15.954Z,100078.88
2023-10-08T10:29:49.128Z,100103.78
2023-10-08T10:32:17.204Z,100122.09
2023-10-08T10:34:45.618Z,100130.22
2023-10-08T10:37:21.526Z,100146.47
2023-10-08T10:40:02.021Z,100120.41
2023-10-08T10:42:32.273Z,100085.19
2023-10-08T10:45:00.345Z,100063.34
2023-10-08T10:47:28.080Z,100063.19
2023-10-08T10:50:21.871Z,100063.97
2023-10-08T10:52:54.853Z,100055.59
2023-10-08T10:55:24.054Z,100067.06
2023-10-08T10:57:58.349Z,100085.97
2023-10-08T11:00:55.958Z,100079.50
2023-10-08T11:03:26.203Z,100078.97
2023-10-08T11:05:57.059Z,100079.63
2023-10-08T11:08:27.886Z,100087.00
2023-10-08T11:11:00.066Z,100079.59
2023-10-08T11:13:35.772Z,100090.97
2023-10-08T11:16:05.296Z,100106.50
2023-10-08T11:18:34.278Z,100107.66
2023-10-08T11:21:15.333Z,100100.34
2023-10-08T11:24:00.786Z,100097.59
2023-10-08T11:26:34.390Z,100097.31
2023-10-08T11:29:05.172Z,100109.00
2023-10-08T11:31:35.903Z,100101.50
2023-10-08T11:34:14.970Z,100091.69
2023-10-08T11:36:55.052Z,100105.53
2023-10-08T11:39:25.034Z,100089.16
2023-10-08T11:42:05.626Z,100095.06
2023-10-08T11:44:38.104Z,100084.66
2023-10-08T11:47:22.410Z,100080.81
2023-10-08T11:49:52.349Z,100080.63
2023-10-08T11:52:23.298Z,100075.03
2023-10-08T11:54:50.822Z,100066.16
2023-10-08T11:57:23.920Z,100069.84
2023-10-08T11:59:54.413Z,100057.72
2023-10-08T12:02:22.314Z,100054.25
2023-10-08T12:04:49.745Z,100060.09
2023-10-08T12:07:19.370Z,100076.88
2023-10-08T12:09:50.169Z,100063.97
2023-10-08T12:12:24.422Z,100055.41
2023-10-08T12:14:53.574Z,100057.72
2023-10-08T12:17:20.494Z,100059.25
2023-10-08T12:19:47.382Z,100054.97
2023-10-08T12:22:19.377Z,100053.97
2023-10-08T12:24:46.222Z,100049.59
2023-10-08T12:27:13.453Z,100047.44
2023-10-08T12:29:40.688Z,100030.94
2023-10-08T12:32:18.760Z,100034.47
2023-10-08T12:34:46.446Z,100032.47
2023-10-08T12:37:16.489Z,100036.88
2023-10-08T12:40:01.612Z,100031.59
2023-10-08T12:42:28.564Z,100036.00
2023-10-08T12:44:58.995Z,100032.56
2023-10-08T12:47:30.591Z,100048.97
2023-10-08T12:49:58.980Z,100049.59
2023-10-08T12:52:29.588Z,100032.09
2023-10-08T12:54:57.259Z,100041.91
2023-10-08T12:57:33.353Z,100038.34
2023-10-08T13:00:01.190Z,100033.34
2023-10-08T13:02:30.094Z,100025.81
2023-10-08T13:04:58.908Z,100034.50
2023-10-08T13:07:28.001Z,100037.53
2023-10-08T13:09:54.885Z,100036.00
2023-10-08T13:12:22.491Z,100024.19
2023-10-08T13:14:49.639Z,100017.50
2023-10-08T13:17:16.601Z,100024.22
2023-10-08T13:19:43.542Z,100014.63
2023-10-08T13:22:10.494Z,100016.09
2023-10-08T13:24:37.429Z,100008.38
2023-10-08T13:27:07.610Z,100008.38
2023-10-08T13:29:34.738Z,100000.56
2023-10-08T13:32:01.919Z,100001.66
2023-10-08T13:34:29.341Z,100001.25
2023-10-08T13:36:57.632Z,99996.94
2023-10-08T13:39:24.494Z,99993.47
2023-10-08T13:41:53.733Z,99990.22
2023-10-08T13:44:30.994Z,99984.53
2023-10-08T13:47:00.317Z,99976.84
2023-10-08T13:49:36.717Z,99977.00
2023-10-08T13:52:03.745Z,99977.63
2023-10-08T13:54:31.431Z,99979.56
2023-10-08T13:56:59.883Z,99968.09
2023-10-08T13:59:27.660Z,99964.34
2023-10-08T14:01:56.407Z,99966.00
2023-10-08T14:04:32.253Z,99965.63
2023-10-08T14:07:00.106Z,99967.31
2023-10-08T14:09:33.709Z,99969.72
2023-10-08T14:12:02.137Z,99960.44
2023-10-08T14:14:34.955Z,99965.38
2023-10-08T14:17:07.933Z,99959.91
2023-10-08T14:19:48.029Z,99967.72
2023-10-08T14:22:18.586Z,99970.16
2023-10-08T14:24:47.830Z,99974.78
2023-10-08T14:27:17.447Z,99975.91
2023-10-08T14:29:53.521Z,99973.06
2023-10-08T14:32:21.621Z,99970.34
2023-10-08T14:35:08.745Z,99969.22
2023-10-08T14:37:54.380Z,99977.44
2023-10-08T14:40:39.511Z,99989.97
2023-10-08T14:43:06.729Z,99984.69
2023-10-08T14:45:40.853Z,99983.53
2023-10-08T14:48:15.346Z,99976.72
2023-10-08T14:50:44.009Z,99971.56
2023-10-08T14:53:11.222Z,99970.00
2023-10-08T14:55:38.746Z,99973.25
2023-10-08T14:58:10.087Z,99971.31
2023-10-08T15:00:37.948Z,99972.09
2023-10-08T15:03:05.401Z,99958.38
2023-10-08T15:05:33.080Z,99970.94
2023-10-08T15:08:00.043Z,99969.50
2023-10-08T15:10:27.186Z,99967.44
2023-10-08T15:12:55.204Z,99960.06
2023-10-08T15:15:26.637Z,99965.66
2023-10-08T15:17:53.753Z,99965.06
2023-10-08T15:20:21.651Z,99962.03
2023-10-08T15:22:49.778Z,99961.13
2023-10-08T15:25:18.798Z,99959.44
2023-10-08T15:27:47.968Z,99960.81
2023-10-08T15:30:21.628Z,99967.25
2023-10-08T15:32:50.000Z,99962.56
2023-10-08T15:35:26.648Z,99976.31
2023-10-08T15:37:53.980Z,99968.81
2023-10-08T15:40:21.767Z,99971.63
2023-10-08T15:42:53.802Z,99971.38
2023-10-08T15:45:21.849Z,99977.63
2023-10-08T15:47:52.593Z,99968.59
2023-10-08T15:50:27.084Z,99967.31
2023-10-08T15:52:55.944Z,99962.16
2023-10-08T15:55:24.394Z,99960.53
2023-10-08T15:57:52.143Z,99954.72
2023-10-08T16:00:19.960Z,99969.28
2023-10-08T16:02:48.284Z,99974.72
2023-10-08T16:05:16.224Z,99966.09
2023-10-08T16:07:43.641Z,99953.03
2023-10-08T16:10:11.616Z,99968.03
2023-10-08T16:12:38.533Z,99969.97
2023-10-08T16:15:06.919Z,99984.56
2023-10-08T16:17:34.311Z,99980.00
2023-10-08T16:20:10.823Z,99970.16
2023-10-08T16:22:37.842Z,99969.00
2023-10-08T16:25:05.310Z,99960.53
2023-10-08T16:27:32.154Z,99964.56
2023-10-08T16:29:59.068Z,99969.28
2023-10-08T16:32:26.234Z,99970.25
2023-10-08T16:34:54.042Z,99975.25
2023-10-08T16:37:23.478Z,99967.19
2023-10-08T16:39:52.275Z,99962.75
2023-10-08T16:42:19.570Z,99966.06
2023-10-08T16:44:46.749Z,99953.03
2023-10-08T16:47:13.680Z,99941.31
2023-10-08T16:49:40.917Z,99948.41
2023-10-08T16:52:08.416Z,99945.63
2023-10-08T16:54:35.437Z,99937.72
2023-10-08T16:57:02.773Z,99944.53
2023-10-08T16:59:29.672Z,99950.66
2023-10-08T17:01:56.724Z,99955.78
2023-10-08T17:04:23.766Z,99951.38
2023-10-08T17:06:51.216Z,99956.34
2023-10-08T17:09:19.622Z,99963.59
2023-10-08T17:11:50.682Z,99957.75
2023-10-08T17:14:19.389Z,99953.03
2023-10-08T17:16:46.842Z,99957.72
2023-10-08T17:19:14.433Z,99955.94
2023-10-08T17:21:41.742Z,99950.66
2023-10-08T17:24:10.908Z,99943.00
2023-10-08T17:26:38.865Z,99945.22
2023-10-08T17:29:09.557Z,99954.81
2023-10-08T17:31:38.865Z,99945.34
2023-10-08T17:34:07.268Z,99919.94
2023-10-08T17:36:35.368Z,99926.91
2023-10-08T17:39:10.775Z,99926.63
2023-10-08T17:41:37.996Z,99914.53
2023-10-08T17:44:07.349Z,99921.59
2023-10-08T17:46:34.578Z,99911.22
2023-10-08T17:49:06.020Z,99894.66
2023-10-08T17:51:36.281Z,99902.00
2023-10-08T17:54:06.003Z,99911.06
2023-10-08T17:56:33.479Z,99919.56
2023-10-08T17:59:01.121Z,99910.78
2023-10-08T18:01:27.972Z,99896.03
2023-10-08T18:03:55.769Z,99897.03
2023-10-08T18:06:23.161Z,99892.16
2023-10-08T18:08:51.145Z,99898.81
2023-10-08T18:11:20.508Z,99895.50
2023-10-08T18:13:48.084Z,99892.72
2023-10-08T18:16:16.290Z,99896.59
2023-10-08T18:18:44.333Z,99896.19
2023-10-08T18:21:19.639Z,99902.31
2023-10-08T18:23:48.602Z,99901.63
2023-10-08T18:26:17.047Z,99890.91
2023-10-08T18:28:45.382Z,99885.09
2023-10-08T18:31:13.802Z,99878.53
2023-10-08T18:33:42.409Z,99879.25
2023-10-08T18:36:17.247Z,99882.44
2023-10-08T18:38:44.348Z,99876.16
2023-10-08T18:41:13.456Z,99872.72
2023-10-08T18:43:56.459Z,99869.66
2023-10-08T18:46:32.721Z,99869.09
2023-10-08T18:48:59.647Z,99866.59
2023-10-08T18:51:26.447Z,99868.16
2023-10-08T18:53:53.408Z,99858.28
2023-10-08T18:56:20.194Z,99856.63
2023-10-08T18:58:47.519Z,99857.59
2023-10-08T19:01:14.406Z,99861.88
2023-10-08T19:03:42.464Z,99849.81
2023-10-08T19:06:10.080Z,99846.19
2023-10-08T19:08:37.940Z,99845.63
2023-10-08T19:11:13.039Z,99843.84
2023-10-08T19:13:43.289Z,99847.44
2023-10-08T19:16:11.845Z,99825.22
2023-10-08T19:18:43.074Z,99840.75
2023-10-08T19:21:16.723Z,99827.72
2023-10-08T19:23:43.570Z,99811.03
2023-10-08T19:26:10.614Z,99820.38
2023-10-08T19:28:37.418Z,99817.59
2023-10-08T19:31:12.899Z,99817.59
2023-10-08T19:33:40.906Z,99820.66
2023-10-08T19:36:10.087Z,99827.44
2023-10-08T19:38:37.320Z,99820.50
2023-10-08T19:41:04.283Z,99814.13
2023-10-08T19:43:31.274Z,99809.09
2023-10-08T19:45:58.801Z,99799.25
2023-10-08T19:48:26.001Z,99807.44
2023-10-08T19:50:55.200Z,99798.84
2023-10-08T19:53:22.824Z,99804.13
2023-10-08T19:55:52.058Z,99795.38
2023-10-08T19:58:20.870Z,99797.16
2023-10-08T20:00:53.751Z,99800.78
2023-10-08T20:03:21.576Z,99808.28
2023-10-08T20:05:51.761Z,99801.75
2023-10-08T20:08:18.705Z,99796.34
2023-10-08T20:10:46.177Z,99795.50
2023-10-08T20:13:13.865Z,99782.47
2023-10-08T20:15:40.682Z,99790.81
2023-10-08T20:18:07.691Z,99788.44
2023-10-08T20:20:36.808Z,99780.25
2023-10-08T20:23:03.897Z,99775.78
2023-10-08T20:25:35.180Z,99770.94
2023-10-08T20:28:02.070Z,99779.97
2023-10-08T20:30:29.197Z,99773.28
2023-10-08T20:32:56.352Z,99770.38
2023-10-08T20:35:26.696Z,99761.09
2023-10-08T20:37:55.880Z,99764.69
2023-10-08T20:40:26.817Z,99761.91
2023-10-08T20:42:54.395Z,99754.28
2023-10-08T20:45:27.585Z,99761.09
2023-10-08T20:47:56.490Z,99750.81
2023-10-08T20:50:32.843Z,99754.38
2023-10-08T20:53:02.964Z,99749.66
2023-10-08T20:55:35.157Z,99762.69
2023-10-08T20:58:02.490Z,99754.53
2023-10-08T21:00:32.462Z,99754.78
2023-10-08T21:03:04.105Z,99756.50
2023-10-08T21:05:31.681Z,99732.66
2023-10-08T21:08:00.450Z,99723.34
2023-10-08T21:10:28.721Z,99718.06
2023-10-08T21:12:56.780Z,99714.00
2023-10-08T21:15:25.079Z,99704.69
2023-10-08T21:17:55.728Z,99691.81
2023-10-08T21:20:26.997Z,99692.00
2023-10-08T21:22:53.811Z,99699.78
2023-10-08T21:25:21.788Z,99702.66
2023-10-08T21:27:52.434Z,99692.41
2023-10-08T21:30:20.380Z,99688.63
2023-10-08T21:32:49.334Z,99688.78
2023-10-08T21:35:18.874Z,99687.53
2023-10-08T21:37:46.963Z,99693.25
2023-10-08T21:40:15.130Z,99688.22
2023-10-08T21:43:01.345Z,99679.34
2023-10-08T21:45:28.575Z,99682.97
2023-10-08T21:47:56.453Z,99680.47
2023-10-08T21:50:24.803Z,99681.44
2023-10-08T21:52:53.645Z,99667.28
2023-10-08T21:55:23.213Z,99658.53
2023-10-08T21:57:51.566Z,99659.94
2023-10-08T22:00:33.873Z,99649.94
2023-10-08T22:03:02.215Z,99636.22
2023-10-08T22:05:32.476Z,99635.09
2023-10-08T22:08:00.428Z,99628.31
2023-10-08T22:10:29.915Z,99636.50
2023-10-08T22:13:00.191Z,99649.81
2023-10-08T22:15:30.679Z,99651.19
2023-10-08T22:18:03.609Z,99642.84
2023-10-08T22:20:40.176Z,99635.34
2023-10-08T22:23:16.694Z,99637.84
2023-10-08T22:25:48.519Z,99628.53
2023-10-08T22:28:21.947Z,99612.03
2023-10-08T22:30:53.626Z,99615.06
2023-10-08T22:33:30.201Z,99613.00
2023-10-08T22:35:58.927Z,99610.13
2023-10-08T22:38:30.908Z,99613.44
2023-10-08T22:41:20.860Z,99598.34
2023-10-08T22:43:51.153Z,99606.78
2023-10-08T22:46:26.304Z,99607.34
2023-10-08T22:48:55.099Z,99605.94
2023-10-08T22:51:28.022Z,99605.69
2023-10-08T22:53:57.670Z,99597.38
2023-10-08T22:56:26.194Z,99603.47
2023-10-08T22:58:54.319Z,99601.38
2023-10-08T23:01:23.131Z,99595.53
2023-10-08T23:03:52.330Z,99603.88
2023-10-08T23:06:20.988Z,99597.94
2023-10-08T23:08:48.847Z,99583.78
2023-10-08T23:11:21.483Z,99573.91
2023-10-08T23:13:48.350Z,99561.16
2023-10-08T23:16:20.759Z,99569.47
2023-10-08T23:18:52.443Z,99556.88
2023-10-08T23:21:22.305Z,99547.16
2023-10-08T23:23:49.516Z,99537.47
2023-10-08T23:26:17.974Z,99520.28
2023-10-08T23:28:48.527Z,99518.31
2023-10-08T23:31:15.781Z,99524.69
2023-10-08T23:33:49.097Z,99515.53
2023-10-08T23:36:17.674Z,99506.25
2023-10-08T23:38:54.416Z,99523.19
2023-10-08T23:41:33.751Z,99522.81
2023-10-08T23:44:04.364Z,99530.16
2023-10-08T23:46:34.919Z,99521.28
2023-10-08T23:49:16.937Z,99517.25
2023-10-08T23:51:53.669Z,99522.69
2023-10-08T23:54:29.180Z,99520.72
2023-10-08T23:57:00.121Z,99512.84
2023-10-08T23:59:43.725Z,99517.53
